Time;durP1;ratioP1;P1;durP2;ratioP2;P2;SDS_P1;SDS_P2;PMS_P1;PMS_P2;Temp;Humidity;BMP_temperature;BMP_pressure;BME280_temperature;BME280_humidity;BME280_pressure;Samples;Min_cycle;Max_cycle;Signal;HPM_P1;HPM_P2
2023/03/24 00:01:53;;;;;;;4.53;1.48;;;11.00;99.90;;;;;;4987537;28;20049;-79
2023/03/24 00:04:20;;;;;;;2.67;1.40;;;11.00;99.90;;;;;;5004434;28;20394;-79
2023/03/24 00:06:48;;;;;;;2.60;1.70;;;11.00;99.90;;;;;;5005000;28;20117;-79
2023/03/24 00:09:14;;;;;;;6.45;2.03;;;11.00;99.90;;;;;;4986800;28;20053;-79
2023/03/24 00:11:40;;;;;;;3.08;1.83;;;11.00;99.90;;;;;;4986577;28;20143;-79
2023/03/24 00:14:05;;;;;;;6.55;1.73;;;11.00;99.90;;;;;;5005060;28;20471;-80
2023/03/24 00:16:33;;;;;;;2.47;1.35;;;11.00;99.90;;;;;;5019625;28;20049;-79
2023/03/24 00:18:59;;;;;;;3.63;1.85;;;11.00;99.90;;;;;;5020209;28;20056;-80
2023/03/24 00:21:25;;;;;;;4.90;1.70;;;11.00;99.90;;;;;;4987277;28;20457;-79
2023/03/24 00:23:53;;;;;;;2.88;2.00;;;11.00;99.90;;;;;;4987225;28;20050;-78
2023/03/24 00:26:20;;;;;;;1.63;1.52;;;11.00;99.90;;;;;;5003896;28;20491;-80
2023/03/24 00:28:47;;;;;;;3.85;1.73;;;11.00;99.90;;;;;;5005063;28;20073;-81
2023/03/24 00:31:15;;;;;;;5.18;1.65;;;11.00;99.90;;;;;;5019677;28;20069;-85
2023/03/24 00:33:41;;;;;;;1.85;1.50;;;11.00;99.90;;;;;;5003422;28;20414;-86
2023/03/24 00:36:12;;;;;;;3.38;1.60;;;11.00;99.90;;;;;;4986791;28;20741;-94
2023/03/24 00:38:39;;;;;;;4.57;1.50;;;11.00;99.90;;;;;;5020465;28;20490;-91
2023/03/24 00:41:06;;;;;;;1.80;1.15;;;11.00;99.90;;;;;;4987310;28;20053;-89
2023/03/24 00:43:33;;;;;;;1.42;1.27;;;11.00;99.90;;;;;;4986732;28;20045;-86
2023/03/24 00:46:00;;;;;;;2.28;1.30;;;11.00;99.90;;;;;;4987801;28;20056;-90
2023/03/24 00:48:27;;;;;;;3.17;1.02;;;11.00;99.90;;;;;;5005530;28;20037;-85
2023/03/24 00:50:53;;;;;;;2.05;1.30;;;10.90;99.90;;;;;;5004655;28;20048;-84
2023/03/24 00:53:19;;;;;;;6.25;1.42;;;10.90;99.90;;;;;;5004704;28;20050;-77
2023/03/24 00:55:48;;;;;;;3.63;1.10;;;10.90;99.90;;;;;;5005043;28;20050;-91
2023/03/24 00:58:18;;;;;;;3.90;1.67;;;11.00;99.90;;;;;;4986810;28;20095;-92
2023/03/24 01:00:49;;;;;;;2.55;1.40;;;11.00;99.90;;;;;;4987699;28;20053;-92
2023/03/24 01:03:16;;;;;;;3.00;1.33;;;10.90;99.90;;;;;;5004907;28;20065;-79
2023/03/24 01:05:46;;;;;;;3.78;1.48;;;11.00;99.90;;;;;;5005676;28;20061;-93
2023/03/24 01:08:19;;;;;;;2.97;1.67;;;11.00;99.90;;;;;;4991217;28;20049;-91
2023/03/24 01:10:49;;;;;;;3.25;1.70;;;11.00;99.90;;;;;;4991897;28;20089;-84
2023/03/24 01:13:16;;;;;;;2.70;1.52;;;10.90;99.90;;;;;;4974168;28;20049;-84
2023/03/24 01:15:43;;;;;;;1.83;1.10;;;11.00;99.90;;;;;;4991553;28;20410;-82
2023/03/24 01:18:11;;;;;;;2.60;1.30;;;11.00;99.90;;;;;;5008807;28;20124;-87
2023/03/24 01:20:39;;;;;;;3.70;1.48;;;11.00;99.90;;;;;;4991454;28;20046;-88
2023/03/24 01:23:05;;;;;;;3.95;1.60;;;11.00;99.90;;;;;;5008831;28;20046;-93
2023/03/24 01:25:32;;;;;;;3.40;1.30;;;11.00;99.90;;;;;;5024476;28;20041;-92
2023/03/24 01:27:58;;;;;;;3.70;1.40;;;11.00;99.90;;;;;;5023801;28;20041;-90
2023/03/24 01:30:26;;;;;;;4.38;1.52;;;11.00;99.90;;;;;;5008759;28;20095;-86
2023/03/24 01:32:52;;;;;;;1.40;1.30;;;11.00;99.90;;;;;;5008819;28;20045;-84
2023/03/24 01:35:19;;;;;;;2.42;1.70;;;11.00;99.90;;;;;;5008619;28;20068;-87
2023/03/24 01:37:45;;;;;;;3.75;1.67;;;11.00;99.90;;;;;;5007717;28;20053;-91
2023/03/24 01:40:17;;;;;;;5.05;1.25;;;11.00;99.90;;;;;;4991197;28;20050;-92
2023/03/24 01:42:43;;;;;;;;;;;11.00;99.90;;;;;;5008467;28;20045;-89
2023/03/24 01:45:46;;;;;;;2.25;1.52;;;11.00;99.90;;;;;;5007635;28;19921;-91
2023/03/24 01:48:14;;;;;;;4.32;1.48;;;11.00;99.90;;;;;;5021243;28;20045;-86
2023/03/24 01:50:43;;;;;;;2.38;1.30;;;11.00;99.90;;;;;;5007988;28;20506;-94
2023/03/24 01:53:09;;;;;;;3.33;1.88;;;11.00;99.90;;;;;;4990784;28;20045;-92
2023/03/24 01:55:36;;;;;;;1.38;1.17;;;11.10;99.90;;;;;;5006764;28;20089;-86
2023/03/24 01:58:02;;;;;;;3.33;1.33;;;11.10;99.90;;;;;;5007176;28;20060;-92
2023/03/24 02:00:29;;;;;;;3.75;1.42;;;11.10;99.90;;;;;;4991137;28;20050;-77
2023/03/24 02:03:02;;;;;;;3.05;1.30;;;11.10;99.90;;;;;;5060042;23;20531;-86
2023/03/24 02:05:31;;;;;;;3.60;1.88;;;11.10;99.90;;;;;;4991277;28;20050;-84
2023/03/24 02:08:02;;;;;;;2.88;1.83;;;11.10;99.90;;;;;;5008463;28;20069;-88
2023/03/24 02:10:32;;;;;;;4.53;1.55;;;11.10;99.90;;;;;;5023883;28;20120;-84
2023/03/24 02:12:58;;;;;;;4.72;1.63;;;11.10;99.90;;;;;;5007945;28;20049;-93
2023/03/24 02:15:26;;;;;;;2.80;1.35;;;11.10;99.90;;;;;;5007797;28;20033;-90
2023/03/24 02:18:07;;;;;;;4.80;1.48;;;11.10;99.90;;;;;;5007817;28;20068;-85
2023/03/24 02:20:57;;;;;;;3.88;1.40;;;11.10;99.90;;;;;;4997418;28;20042;-93
2023/03/24 02:23:32;;;;;;;5.55;1.15;;;11.10;99.90;;;;;;4987402;28;20050;-94
2023/03/24 02:25:57;;;;;;;4.30;1.40;;;11.10;99.90;;;;;;4988945;28;20133;-78
2023/03/24 02:28:47;;;;;;;2.50;1.85;;;11.10;99.90;;;;;;4987629;28;20081;-93
2023/03/24 02:31:49;;;;;;;4.38;1.73;;;11.10;99.90;;;;;;4987748;28;20085;-88
2023/03/24 02:34:27;;;;;;;2.25;1.33;;;11.10;99.90;;;;;;4987318;28;20077;-94
2023/03/24 02:37:17;;;;;;;2.88;1.60;;;11.10;99.90;;;;;;4988374;28;20188;-79
2023/03/24 02:40:00;;;;;;;2.83;1.30;;;11.10;99.90;;;;;;4988188;28;20050;-93
2023/03/24 02:42:41;;;;;;;2.03;1.20;;;11.10;99.90;;;;;;4986473;28;20561;-83
2023/03/24 02:45:41;;;;;;;3.25;1.98;;;11.10;99.90;;;;;;4988114;28;20038;-94
2023/03/24 02:48:16;;;;;;;3.42;1.60;;;11.10;99.90;;;;;;5003834;28;20077;-93
2023/03/24 02:51:00;;;;;;;3.28;1.38;;;11.10;99.90;;;;;;4990905;28;20137;-92
2023/03/24 02:53:49;;;;;;;3.47;1.00;;;11.10;99.90;;;;;;4988810;28;20085;-93
2023/03/24 02:56:36;;;;;;;2.30;1.10;;;11.10;99.90;;;;;;4959842;28;20137;-94
2023/03/24 02:59:05;;;;;;;2.17;1.10;;;11.00;99.90;;;;;;4988095;28;20502;-92
2023/03/24 03:01:52;;;;;;;2.15;1.08;;;11.00;99.90;;;;;;5004675;28;20054;-92
2023/03/24 03:04:24;;;;;;;1.60;0.77;;;11.00;99.90;;;;;;5006381;28;20054;-88
2023/03/24 03:06:55;;;;;;;1.53;0.87;;;10.90;99.90;;;;;;5006233;28;20180;-93
2023/03/24 03:09:22;;;;;;;1.20;0.70;;;10.90;99.90;;;;;;5005706;28;20744;-88
2023/03/24 03:11:51;;;;;;;3.72;1.27;;;10.90;99.90;;;;;;5006475;28;20125;-86
2023/03/24 03:14:23;;;;;;;1.48;0.68;;;10.80;99.90;;;;;;5007286;28;20077;-80
2023/03/24 03:17:00;;;;;;;1.20;1.13;;;10.80;99.90;;;;;;5007069;28;20083;-89
2023/03/24 03:19:40;;;;;;;1.75;0.60;;;10.80;99.90;;;;;;4992336;28;20483;-86
2023/03/24 03:22:13;;;;;;;2.47;0.40;;;10.70;99.90;;;;;;4986942;28;20046;-93
2023/03/24 03:24:49;;;;;;;0.90;0.57;;;10.70;99.90;;;;;;4987186;28;20042;-90
2023/03/24 03:27:38;;;;;;;0.55;0.50;;;10.60;99.90;;;;;;4968979;28;20050;-84
2023/03/24 03:30:22;;;;;;;2.65;0.65;;;10.60;99.90;;;;;;4985040;28;20061;-86
2023/03/24 03:32:55;;;;;;;0.90;0.52;;;10.60;99.90;;;;;;4987407;28;20042;-82
2023/03/24 03:35:53;;;;;;;3.58;0.52;;;10.50;99.90;;;;;;4985665;28;20137;-84
2023/03/24 03:38:43;;;;;;;1.00;0.45;;;10.50;99.90;;;;;;4954068;28;20060;-92
2023/03/24 03:41:09;;;;;;;1.00;0.60;;;10.40;99.90;;;;;;4985664;28;20568;-81
2023/03/24 03:43:35;;;;;;;0.98;0.35;;;10.40;99.90;;;;;;4986470;28;20038;-91
2023/03/24 03:46:02;;;;;;;3.05;0.43;;;10.30;99.90;;;;;;4997493;28;20042;-85
2023/03/24 03:48:28;;;;;;;0.38;0.30;;;10.40;99.90;;;;;;5006980;28;20116;-91
2023/03/24 03:50:55;;;;;;;0.68;0.63;;;10.30;99.90;;;;;;4990509;28;20046;-88
2023/03/24 03:53:29;;;;;;;0.95;0.40;;;10.30;99.90;;;;;;4986392;28;20498;-84
2023/03/24 03:55:55;;;;;;;1.65;0.60;;;10.20;99.90;;;;;;4984453;28;20116;-85
2023/03/24 03:58:22;;;;;;;1.27;0.50;;;10.20;99.90;;;;;;4986323;28;20042;-92
2023/03/24 04:00:48;;;;;;;2.70;0.68;;;10.10;99.90;;;;;;4986051;28;20517;-91
2023/03/24 04:03:33;;;;;;;1.17;0.50;;;10.10;99.90;;;;;;4986074;28;20054;-83
2023/03/24 04:06:31;;;;;;;0.28;0.28;;;10.00;99.90;;;;;;4971637;28;20056;-93
2023/03/24 04:09:19;;;;;;;0.38;0.38;;;10.00;99.90;;;;;;5004973;28;20050;-91
2023/03/24 04:11:59;;;;;;;3.45;0.40;;;9.90;99.90;;;;;;5004724;28;20050;-92
2023/03/24 04:14:50;;;;;;;0.75;0.40;;;9.80;99.90;;;;;;5005917;28;20057;-83
2023/03/24 04:17:25;;;;;;;1.02;0.43;;;9.80;99.90;;;;;;5005090;28;20125;-89
2023/03/24 04:20:31;;;;;;;1.40;0.60;;;9.70;99.90;;;;;;5005565;28;20050;-92
2023/03/24 04:23:04;;;;;;;3.33;0.50;;;9.70;99.90;;;;;;4957064;28;20064;-81
2023/03/24 04:25:34;;;;;;;6.68;0.70;;;9.60;99.90;;;;;;5004489;28;20504;-78
2023/03/24 04:28:25;;;;;;;0.52;0.30;;;9.60;99.90;;;;;;4986974;28;20050;-79
2023/03/24 04:31:17;;;;;;;0.57;0.22;;;9.50;99.90;;;;;;4985190;28;20479;-82
2023/03/24 04:33:57;;;;;;;2.78;0.63;;;9.50;99.90;;;;;;4984543;28;20085;-92
2023/03/24 04:36:28;;;;;;;1.77;0.82;;;9.50;99.90;;;;;;4985392;28;20046;-89
2023/03/24 04:38:56;;;;;;;4.50;0.80;;;9.40;99.90;;;;;;4968311;28;20506;-84
2023/03/24 04:41:25;;;;;;;2.80;0.60;;;9.40;99.90;;;;;;4982407;28;20513;-82
2023/03/24 04:43:54;;;;;;;1.38;0.50;;;9.40;99.90;;;;;;4984118;28;20088;-91
2023/03/24 04:46:20;;;;;;;0.77;0.47;;;9.40;99.90;;;;;;4985548;28;20493;-83
2023/03/24 04:48:49;;;;;;;2.13;0.95;;;9.40;99.90;;;;;;5003818;28;20099;-90
2023/03/24 04:51:19;;;;;;;3.28;0.52;;;9.40;99.90;;;;;;4987038;28;20231;-83
2023/03/24 04:53:46;;;;;;;0.63;0.40;;;9.30;99.90;;;;;;5003491;28;20092;-91
2023/03/24 04:56:46;;;;;;;0.90;0.60;;;9.30;99.90;;;;;;5001911;28;20046;-83
2023/03/24 04:59:12;;;;;;;0.40;0.30;;;9.30;99.90;;;;;;5003118;28;20081;-88
2023/03/24 05:01:39;;;;;;;1.80;0.40;;;9.30;99.90;;;;;;5004909;28;20042;-91
2023/03/24 05:04:05;;;;;;;0.63;0.30;;;9.30;99.90;;;;;;5004333;28;20050;-83
2023/03/24 05:06:31;;;;;;;2.53;0.50;;;9.30;99.90;;;;;;5003759;28;20038;-88
2023/03/24 05:08:58;;;;;;;1.23;0.57;;;9.30;99.90;;;;;;5005290;28;20129;-91
2023/03/24 05:11:26;;;;;;;3.50;0.85;;;9.30;99.90;;;;;;5002939;28;20042;-78
2023/03/24 05:13:52;;;;;;;5.60;0.70;;;9.20;99.90;;;;;;5005306;28;20041;-91
2023/03/24 05:16:18;;;;;;;1.60;0.70;;;9.20;99.90;;;;;;5003269;28;20046;-91
2023/03/24 05:18:43;;;;;;;3.10;0.57;;;9.20;99.90;;;;;;5004456;28;20049;-85
2023/03/24 05:21:09;;;;;;;2.15;0.57;;;9.20;99.90;;;;;;4989034;28;20038;-78
2023/03/24 05:23:35;;;;;;;1.20;0.50;;;9.10;99.90;;;;;;4984957;28;20038;-85
2023/03/24 05:26:00;;;;;;;4.68;0.88;;;9.10;99.90;;;;;;4966626;28;20124;-87
2023/03/24 05:28:26;;;;;;;3.08;0.40;;;9.10;99.90;;;;;;4999612;28;20045;-90
2023/03/24 05:30:52;;;;;;;3.80;0.70;;;9.10;99.90;;;;;;4987212;28;20057;-85
2023/03/24 05:33:17;;;;;;;2.05;0.60;;;9.00;99.90;;;;;;5002637;28;20697;-90
2023/03/24 05:35:43;;;;;;;1.77;0.50;;;9.00;99.90;;;;;;5003177;28;20397;-86
2023/03/24 05:38:09;;;;;;;1.60;0.43;;;9.00;99.90;;;;;;5004280;28;20042;-88
2023/03/24 05:40:35;;;;;;;2.20;0.35;;;9.00;99.90;;;;;;5001261;28;20054;-84
2023/03/24 05:43:01;;;;;;;1.88;0.70;;;9.00;99.90;;;;;;5004030;28;20046;-89
2023/03/24 05:45:28;;;;;;;3.42;0.57;;;9.00;99.90;;;;;;5005036;28;20096;-91
2023/03/24 05:47:54;;;;;;;1.00;0.38;;;9.00;99.90;;;;;;5002228;28;20050;-84
2023/03/24 05:50:20;;;;;;;2.00;0.55;;;8.90;99.90;;;;;;4988937;28;20050;-82
2023/03/24 05:52:46;;;;;;;1.23;0.57;;;8.90;99.90;;;;;;5000363;28;20109;-91
2023/03/24 05:55:12;;;;;;;2.03;1.05;;;8.90;99.90;;;;;;4991531;28;20449;-78
2023/03/24 05:57:37;;;;;;;0.88;0.30;;;8.90;99.90;;;;;;4991180;28;20387;-87
2023/03/24 06:00:10;;;;;;;1.83;0.43;;;9.00;99.90;;;;;;4994454;28;20477;-84
2023/03/24 06:02:35;;;;;;;;;;;8.90;99.90;;;;;;5004978;28;20057;-83
2023/03/24 06:05:02;;;;;;;1.17;0.43;;;9.00;99.90;;;;;;5019246;28;20337;-88
2023/03/24 06:07:29;;;;;;;0.30;0.30;;;9.00;99.90;;;;;;4993732;28;20117;-86
2023/03/24 06:09:56;;;;;;;1.05;0.50;;;8.90;99.90;;;;;;4989474;28;20541;-83
2023/03/24 06:12:22;;;;;;;2.83;0.50;;;8.90;99.90;;;;;;4994706;28;20042;-80
2023/03/24 06:14:48;;;;;;;1.35;0.63;;;8.90;99.90;;;;;;5002958;28;20050;-85
2023/03/24 06:17:14;;;;;;;0.38;0.38;;;8.90;99.90;;;;;;4988935;28;20037;-84
2023/03/24 06:19:47;;;;;;;3.38;0.40;;;8.90;99.90;;;;;;5002469;28;20050;-83
2023/03/24 06:22:13;;;;;;;1.90;0.73;;;9.00;99.90;;;;;;4992874;28;20038;-89
2023/03/24 06:24:38;;;;;;;2.13;0.65;;;8.90;99.90;;;;;;4998925;28;20437;-83
2023/03/24 06:27:07;;;;;;;1.40;0.55;;;9.00;99.90;;;;;;4986048;28;20049;-87
2023/03/24 06:29:34;;;;;;;2.20;0.75;;;9.00;99.90;;;;;;4991903;28;20494;-79
2023/03/24 06:31:59;;;;;;;0.50;0.50;;;9.00;99.90;;;;;;5016986;28;20056;-78
2023/03/24 06:34:25;;;;;;;4.13;0.47;;;9.00;99.90;;;;;;4988896;28;20049;-74
2023/03/24 06:36:51;;;;;;;4.90;1.27;;;9.00;99.90;;;;;;4993249;28;20731;-76
2023/03/24 06:39:17;;;;;;;2.90;0.82;;;8.90;99.90;;;;;;4985274;28;20125;-74
2023/03/24 06:41:43;;;;;;;1.42;0.55;;;9.00;99.90;;;;;;4988462;28;20042;-75
2023/03/24 06:44:08;;;;;;;0.45;0.40;;;9.00;99.90;;;;;;4997954;28;20371;-74
2023/03/24 06:46:34;;;;;;;2.42;0.57;;;9.00;99.90;;;;;;5003988;28;20049;-74
2023/03/24 06:49:00;;;;;;;0.60;0.22;;;9.00;99.90;;;;;;5002804;28;20456;-74
2023/03/24 06:51:25;;;;;;;2.22;0.85;;;9.00;99.90;;;;;;4994319;28;20046;-74
2023/03/24 06:53:51;;;;;;;2.58;0.63;;;9.10;99.90;;;;;;4995027;28;20062;-74
2023/03/24 06:56:19;;;;;;;3.63;0.52;;;9.10;99.90;;;;;;4992489;28;20037;-76
2023/03/24 06:58:44;;;;;;;1.80;0.90;;;9.10;99.90;;;;;;4989634;28;20042;-76
2023/03/24 07:01:10;;;;;;;8.40;0.85;;;9.10;99.90;;;;;;4985762;28;20680;-76
2023/03/24 07:03:37;;;;;;;1.58;0.60;;;9.10;99.90;;;;;;4999614;28;20057;-76
2023/03/24 07:06:04;;;;;;;7.15;1.00;;;9.20;99.90;;;;;;5005017;28;20050;-76
2023/03/24 07:08:30;;;;;;;2.53;0.45;;;9.20;99.90;;;;;;5003273;28;20471;-76
2023/03/24 07:10:55;;;;;;;2.72;0.68;;;9.20;99.90;;;;;;5005001;28;20041;-76
2023/03/24 07:13:21;;;;;;;2.65;0.60;;;9.30;99.90;;;;;;5004948;28;20038;-76
2023/03/24 07:15:47;;;;;;;1.48;0.65;;;9.30;99.90;;;;;;5005526;28;20508;-76
2023/03/24 07:18:13;;;;;;;3.20;0.60;;;9.30;99.90;;;;;;4973330;28;20384;-76
2023/03/24 07:20:40;;;;;;;4.85;0.38;;;9.30;99.90;;;;;;4985163;28;20509;-76
2023/03/24 07:23:05;;;;;;;0.40;0.40;;;9.30;99.90;;;;;;4985223;28;20400;-76
2023/03/24 07:25:31;;;;;;;3.80;0.70;;;9.40;99.90;;;;;;4984356;28;20054;-77
2023/03/24 07:27:57;;;;;;;5.28;0.77;;;9.40;99.90;;;;;;4994589;28;20038;-76
2023/03/24 07:30:24;;;;;;;3.58;0.80;;;9.40;99.90;;;;;;5002727;28;20040;-76
2023/03/24 07:32:49;;;;;;;1.65;0.70;;;9.40;99.90;;;;;;4985806;28;20050;-77
2023/03/24 07:35:16;;;;;;;2.00;0.50;;;9.40;99.90;;;;;;4986620;28;20428;-80
2023/03/24 07:37:42;;;;;;;2.53;0.70;;;9.50;99.90;;;;;;5004131;28;20100;-77
2023/03/24 07:40:11;;;;;;;2.35;0.47;;;9.50;99.90;;;;;;4997700;28;20548;-79
2023/03/24 07:42:43;;;;;;;10.10;1.13;;;9.50;99.90;;;;;;4992208;28;20039;-76
2023/03/24 07:45:10;;;;;;;1.02;0.63;;;9.50;99.90;;;;;;4986615;28;20049;-78
2023/03/24 07:47:37;;;;;;;1.23;0.45;;;9.60;99.90;;;;;;4974521;28;20058;-76
2023/03/24 07:50:08;;;;;;;2.95;0.93;;;9.60;99.90;;;;;;4976138;28;20519;-77
2023/03/24 07:52:40;;;;;;;2.13;0.70;;;9.60;99.90;;;;;;4962673;28;20060;-78
2023/03/24 07:55:11;;;;;;;5.80;0.70;;;9.60;99.90;;;;;;4967094;28;20049;-76
2023/03/24 07:57:44;;;;;;;2.20;0.70;;;9.70;99.90;;;;;;5018477;28;20053;-77
2023/03/24 08:00:14;;;;;;;5.95;1.00;;;9.70;99.90;;;;;;4991598;28;20270;-77
2023/03/24 08:02:40;;;;;;;2.65;0.40;;;9.70;99.90;;;;;;4984334;28;20518;-77
2023/03/24 08:05:08;;;;;;;4.70;1.00;;;9.70;99.90;;;;;;4984138;28;20049;-77
2023/03/24 08:07:33;;;;;;;7.03;0.98;;;9.80;99.90;;;;;;4985297;28;20062;-78
2023/03/24 08:09:59;;;;;;;1.50;0.30;;;9.80;99.90;;;;;;4993557;28;20034;-79
2023/03/24 08:12:25;;;;;;;1.27;0.50;;;9.80;99.90;;;;;;4997486;28;20053;-78
2023/03/24 08:14:51;;;;;;;3.15;0.70;;;9.80;99.90;;;;;;4994823;28;20057;-77
2023/03/24 08:17:16;;;;;;;1.38;0.52;;;9.90;99.90;;;;;;5002625;28;20068;-78
2023/03/24 08:19:42;;;;;;;6.60;0.57;;;9.90;99.90;;;;;;4988843;28;20113;-78
2023/03/24 08:22:07;;;;;;;3.17;0.50;;;9.90;99.90;;;;;;5004391;28;20111;-77
2023/03/24 08:24:35;;;;;;;3.35;0.75;;;9.90;99.90;;;;;;5003996;28;20046;-78
2023/03/24 08:27:05;;;;;;;1.77;0.45;;;9.90;99.90;;;;;;4989116;28;20070;-78
2023/03/24 08:29:33;;;;;;;2.40;0.60;;;9.90;99.90;;;;;;4994833;28;20053;-78
2023/03/24 08:31:59;;;;;;;1.85;0.40;;;9.90;99.90;;;;;;4992737;28;20536;-77
2023/03/24 08:34:25;;;;;;;4.78;1.02;;;10.00;99.90;;;;;;5003624;28;20108;-78
2023/03/24 08:36:51;;;;;;;6.28;0.52;;;10.00;99.90;;;;;;5004318;28;20056;-77
2023/03/24 08:39:17;;;;;;;5.38;0.73;;;10.00;99.90;;;;;;5002141;28;20402;-76
2023/03/24 08:41:45;;;;;;;7.18;0.70;;;10.10;99.90;;;;;;4994817;28;20046;-78
2023/03/24 08:44:10;;;;;;;1.58;0.50;;;10.10;99.90;;;;;;4973913;28;20039;-78
2023/03/24 08:46:36;;;;;;;11.63;0.73;;;10.10;99.90;;;;;;4992678;28;20029;-77
2023/03/24 08:49:04;;;;;;;2.97;0.50;;;10.10;99.90;;;;;;5003360;28;20119;-77
2023/03/24 08:51:30;;;;;;;3.53;0.50;;;10.20;99.90;;;;;;5003011;28;20030;-77
2023/03/24 08:53:56;;;;;;;4.90;0.75;;;10.20;99.90;;;;;;5004085;28;20092;-77
2023/03/24 08:56:22;;;;;;;3.47;0.30;;;10.30;99.90;;;;;;5001483;28;20046;-78
2023/03/24 08:58:50;;;;;;;1.85;0.70;;;10.30;99.90;;;;;;4984476;28;20289;-77
2023/03/24 09:01:19;;;;;;;1.92;0.60;;;10.30;99.90;;;;;;4983533;28;20050;-77
2023/03/24 09:03:45;;;;;;;1.15;0.77;;;10.30;99.90;;;;;;4996556;28;20052;-78
2023/03/24 09:06:11;;;;;;;5.82;0.50;;;10.30;99.90;;;;;;4999715;28;20129;-77
2023/03/24 09:08:37;;;;;;;4.30;0.55;;;10.30;99.90;;;;;;5001891;28;20588;-77
2023/03/24 09:11:04;;;;;;;1.80;0.50;;;10.30;99.90;;;;;;4988719;28;20626;-77
2023/03/24 09:13:30;;;;;;;4.00;0.98;;;10.30;99.90;;;;;;5002534;28;20494;-78
2023/03/24 09:16:01;;;;;;;4.05;0.43;;;10.20;99.90;;;;;;5003800;28;20091;-77
2023/03/24 09:18:27;;;;;;;3.88;0.82;;;10.20;99.90;;;;;;4985288;28;20039;-77
2023/03/24 09:20:53;;;;;;;4.80;1.23;;;10.30;99.90;;;;;;4982522;28;20049;-77
2023/03/24 09:23:20;;;;;;;2.45;0.38;;;10.30;99.90;;;;;;4982254;28;20038;-77
2023/03/24 09:25:51;;;;;;;3.75;0.57;;;10.30;99.90;;;;;;5001196;28;20026;-77
2023/03/24 09:28:17;;;;;;;1.63;0.45;;;10.40;99.90;;;;;;5005477;28;20101;-78
2023/03/24 09:30:43;;;;;;;2.72;0.88;;;10.40;99.90;;;;;;5006027;28;20049;-78
2023/03/24 09:33:09;;;;;;;4.78;0.60;;;10.40;99.90;;;;;;4989614;28;20046;-77
2023/03/24 09:35:35;;;;;;;3.13;0.60;;;10.40;99.90;;;;;;4985910;28;20486;-78
2023/03/24 09:38:00;;;;;;;3.17;0.43;;;10.50;99.90;;;;;;5002854;28;20034;-77
2023/03/24 09:40:29;;;;;;;1.27;0.40;;;10.40;99.90;;;;;;4986587;28;20051;-77
2023/03/24 09:43:24;;;;;;;6.95;0.65;;;10.40;99.90;;;;;;4987576;28;20337;-78
2023/03/24 09:45:53;;;;;;;3.15;0.40;;;10.50;99.90;;;;;;4987429;28;20108;-79
2023/03/24 09:48:30;;;;;;;2.83;0.60;;;10.40;99.90;;;;;;5002702;28;20057;-78
2023/03/24 09:51:18;;;;;;;2.80;0.50;;;10.50;99.90;;;;;;5007148;28;20053;-77
2023/03/24 09:54:21;;;;;;;8.02;0.80;;;10.50;99.90;;;;;;4987349;28;20118;-76
2023/03/24 09:56:48;;;;;;;4.95;0.60;;;10.50;99.90;;;;;;4985585;28;20134;-77
2023/03/24 09:59:31;;;;;;;2.67;0.63;;;10.60;99.90;;;;;;4985725;28;20066;-77
2023/03/24 10:01:57;;;;;;;2.05;0.35;;;10.60;99.90;;;;;;4969651;28;20075;-77
2023/03/24 10:04:28;;;;;;;1.75;0.38;;;10.60;99.90;;;;;;4985497;28;20130;-77
2023/03/24 10:07:02;;;;;;;2.63;0.57;;;10.60;99.90;;;;;;4987138;28;20061;-77
2023/03/24 10:09:33;;;;;;;3.80;0.40;;;10.70;99.90;;;;;;4993041;28;20054;-77
2023/03/24 10:12:30;;;;;;;3.40;0.65;;;10.60;99.90;;;;;;5001077;28;20030;-77
2023/03/24 10:15:22;;;;;;;3.70;0.70;;;10.70;99.90;;;;;;4985654;28;20119;-77
2023/03/24 10:18:03;;;;;;;5.63;0.82;;;10.60;99.90;;;;;;4970312;28;20406;-77
2023/03/24 10:20:44;;;;;;;8.35;0.60;;;10.70;99.90;;;;;;4985427;28;20042;-77
2023/03/24 10:23:46;;;;;;;2.75;0.35;;;10.70;99.90;;;;;;4985090;28;20133;-77
2023/03/24 10:26:45;;;;;;;3.58;0.40;;;10.70;99.90;;;;;;5001208;28;20052;-77
2023/03/24 10:29:24;;;;;;;3.35;0.75;;;10.70;99.90;;;;;;5006104;28;20049;-77
2023/03/24 10:32:22;;;;;;;5.93;0.98;;;10.80;99.90;;;;;;5000486;28;20446;-77
2023/03/24 10:35:00;;;;;;;4.97;0.65;;;10.80;99.90;;;;;;4984441;28;20514;-77
2023/03/24 10:37:29;;;;;;;3.65;0.60;;;10.90;99.90;;;;;;4994213;28;20064;-77
2023/03/24 10:39:55;;;;;;;1.60;0.43;;;10.90;99.90;;;;;;5005223;28;20030;-77
2023/03/24 10:42:27;;;;;;;5.65;0.55;;;10.90;99.90;;;;;;4997607;28;20105;-77
2023/03/24 10:44:53;;;;;;;4.75;0.93;;;10.90;99.90;;;;;;4990355;28;20093;-77
2023/03/24 10:47:26;;;;;;;3.97;0.63;;;10.90;99.90;;;;;;4993890;28;20078;-77
2023/03/24 10:49:59;;;;;;;3.25;0.70;;;10.90;99.90;;;;;;5004121;28;20425;-77
2023/03/24 10:52:27;;;;;;;1.90;0.43;;;10.90;99.90;;;;;;4987295;28;20552;-77
2023/03/24 10:55:02;;;;;;;7.70;1.05;;;10.90;99.90;;;;;;5003630;28;20050;-77
2023/03/24 10:57:29;;;;;;;1.30;0.85;;;11.00;99.90;;;;;;5003922;28;20072;-77
2023/03/24 11:00:08;;;;;;;4.97;0.38;;;10.90;99.90;;;;;;4987997;28;20050;-77
2023/03/24 11:02:36;;;;;;;3.80;0.70;;;11.00;99.90;;;;;;5003578;28;20334;-77
2023/03/24 11:05:18;;;;;;;1.95;0.45;;;11.00;99.90;;;;;;4986865;28;20483;-77
2023/03/24 11:07:47;;;;;;;4.88;0.50;;;11.10;99.90;;;;;;4984215;28;20384;-77
2023/03/24 11:10:15;;;;;;;0.32;0.30;;;11.10;99.90;;;;;;4987993;28;20047;-77
2023/03/24 11:13:03;;;;;;;2.30;0.25;;;11.10;99.90;;;;;;4995517;28;20069;-77
2023/03/24 11:15:35;;;;;;;1.80;0.40;;;11.10;99.90;;;;;;5002495;28;20187;-77
2023/03/24 11:18:10;;;;;;;1.80;0.30;;;11.10;99.90;;;;;;5001216;28;20116;-77
2023/03/24 11:20:38;;;;;;;1.55;0.93;;;11.20;99.90;;;;;;4986563;28;20046;-79
2023/03/24 11:23:18;;;;;;;2.85;0.38;;;11.20;99.90;;;;;;5001746;28;20124;-78
2023/03/24 11:26:06;;;;;;;1.30;0.63;;;11.20;99.90;;;;;;4971897;28;20034;-77
2023/03/24 11:28:39;;;;;;;3.47;0.50;;;11.20;99.90;;;;;;5005317;28;20421;-78
2023/03/24 11:31:07;;;;;;;3.53;0.40;;;11.20;99.90;;;;;;4992214;28;20066;-76
2023/03/24 11:33:49;;;;;;;2.92;0.40;;;11.30;99.90;;;;;;4986734;28;20038;-77
2023/03/24 11:36:29;;;;;;;0.82;0.40;;;11.30;99.90;;;;;;4985102;28;20096;-77
2023/03/24 11:39:01;;;;;;;2.75;0.43;;;11.30;99.90;;;;;;4985632;28;20057;-77
2023/03/24 11:41:27;;;;;;;0.77;0.63;;;11.30;99.90;;;;;;4989835;28;20057;-77
2023/03/24 11:44:21;;;;;;;4.75;1.10;;;11.30;99.90;;;;;;5005034;28;20050;-77
2023/03/24 11:47:01;;;;;;;2.47;0.70;;;11.30;99.90;;;;;;4999164;28;20045;-76
2023/03/24 11:49:32;;;;;;;3.42;0.95;;;11.40;99.90;;;;;;4984477;28;20042;-77
2023/03/24 11:51:58;;;;;;;3.65;0.70;;;11.30;99.90;;;;;;4984693;28;20542;-77
2023/03/24 11:54:32;;;;;;;4.75;0.60;;;11.40;99.90;;;;;;4986183;28;20069;-77
2023/03/24 11:57:09;;;;;;;3.33;0.80;;;11.40;99.90;;;;;;4992996;28;20087;-77
2023/03/24 11:59:56;;;;;;;2.03;0.40;;;11.40;99.90;;;;;;5002173;28;20045;-77
2023/03/24 12:02:47;;;;;;;1.80;0.65;;;11.40;99.90;;;;;;4985581;28;20058;-76
2023/03/24 12:05:18;;;;;;;2.33;0.55;;;11.40;99.90;;;;;;4999363;28;20148;-76
2023/03/24 12:08:13;;;;;;;2.90;0.47;;;11.50;99.90;;;;;;4997619;28;20046;-77
2023/03/24 12:10:41;;;;;;;4.90;0.57;;;11.50;99.90;;;;;;5010694;28;20057;-77
2023/03/24 12:13:24;;;;;;;1.15;0.30;;;11.60;99.90;;;;;;4992629;28;20591;-77
2023/03/24 12:16:04;;;;;;;2.83;0.50;;;11.60;99.90;;;;;;5010881;28;20049;-76
2023/03/24 12:18:47;;;;;;;3.97;0.50;;;11.60;99.90;;;;;;5000715;28;20502;-77
2023/03/24 12:21:21;;;;;;;1.10;0.30;;;11.60;99.90;;;;;;5000599;28;20133;-77
2023/03/24 12:23:58;;;;;;;1.15;0.30;;;11.60;99.90;;;;;;4986285;28;20357;-77
2023/03/24 12:26:30;;;;;;;5.47;0.98;;;11.60;99.90;;;;;;5001741;28;20046;-76
2023/03/24 12:29:01;;;;;;;2.55;0.70;;;11.60;99.90;;;;;;4983514;28;20046;-76
2023/03/24 12:31:40;;;;;;;1.02;0.25;;;11.60;99.90;;;;;;4985423;28;20038;-77
2023/03/24 12:34:46;;;;;;;1.45;0.30;;;11.60;99.90;;;;;;5002278;28;20046;-77
2023/03/24 12:37:27;;;;;;;2.28;0.45;;;11.60;99.90;;;;;;5001351;28;20045;-77
2023/03/24 12:40:05;;;;;;;3.13;0.77;;;11.60;99.90;;;;;;4978130;28;20050;-77
2023/03/24 12:42:39;;;;;;;1.38;0.60;;;11.50;99.90;;;;;;4984666;28;20470;-77
2023/03/24 12:45:36;;;;;;;2.65;0.45;;;11.60;99.90;;;;;;4998777;28;20038;-77
2023/03/24 12:48:22;;;;;;;1.50;0.50;;;11.60;99.90;;;;;;4993445;28;20522;-77
2023/03/24 12:51:21;;;;;;;9.45;0.88;;;11.60;99.90;;;;;;4987992;28;20557;-78
2023/03/24 12:54:04;;;;;;;5.43;1.40;;;11.70;99.90;;;;;;4994454;28;20109;-77
2023/03/24 12:56:41;;;;;;;1.20;0.50;;;11.70;99.90;;;;;;5000859;28;20057;-78
2023/03/24 12:59:18;;;;;;;1.55;0.55;;;11.70;99.90;;;;;;5002368;28;20125;-77
2023/03/24 13:01:47;;;;;;;6.22;0.70;;;11.70;99.90;;;;;;4968774;28;20181;-76
2023/03/24 13:04:30;;;;;;;5.47;0.40;;;11.70;99.90;;;;;;4987968;28;20103;-77
2023/03/24 13:07:04;;;;;;;3.13;0.38;;;11.70;99.90;;;;;;4992911;28;20117;-76
2023/03/24 13:09:56;;;;;;;3.40;0.20;;;11.70;99.90;;;;;;5002791;28;20500;-77
2023/03/24 13:12:44;;;;;;;2.33;0.50;;;11.70;99.90;;;;;;4985711;28;20054;-76
2023/03/24 13:15:31;;;;;;;3.38;1.23;;;11.80;99.90;;;;;;4987281;28;20290;-76
2023/03/24 13:18:09;;;;;;;2.60;0.38;;;11.80;99.90;;;;;;4986569;28;20086;-76